Terminal Aerodrome Forecast
Issued by NWS

Home | Current Version | Previous Version | Text Only | Print | Product List | Glossary On
Versions: 1 2 3 4 5 6 7 8 9 10 11 12 13 14 15 16 17 18 19
000
FTUS41 KBTV 262320
TAFRUT
TAF
KRUT 262320Z 2700/2724 34004KT 4SM -RA BR OVC009
     FM270300 VRB03KT 3SM -RASN BR SCT009 OVC012
     FM270600 31006KT 3SM -SN BR SCT012 OVC025
     FM270900 34005KT 6SM BR VCSH SCT020 OVC030
     FM271300 34007KT P6SM BKN030 OVC040
      AMD LTD TO CLD VIS AND WIND=

USA.gov is the U.S. government's official web portal to all federal, state and local government web resources and services.